Time;durP1;ratioP1;P1;durP2;ratioP2;P2;SDS_P1;SDS_P2;PMS_P1;PMS_P2;Temp;Humidity;BMP_temperature;BMP_pressure;BME280_temperature;BME280_humidity;BME280_pressure;Samples;Min_cycle;Max_cycle;Signal;HPM_P1;HPM_P2
2023/08/26 00:01:41;;;;;;;;;;;20.90;96.10;;;;;;5035468;28;19959;-70
2023/08/26 00:04:06;;;;;;;;;;;20.90;96.20;;;;;;5035643;28;20274;-70
2023/08/26 00:06:33;;;;;;;;;;;20.90;96.10;;;;;;5035468;28;19916;-70
2023/08/26 00:08:58;;;;;;;;;;;20.90;96.10;;;;;;5035144;28;19910;-70
2023/08/26 00:11:24;;;;;;;;;;;20.90;96.10;;;;;;5035252;28;19974;-70
2023/08/26 00:13:49;;;;;;;;;;;20.90;96.20;;;;;;5035357;28;19916;-70
2023/08/26 00:16:15;;;;;;;;;;;20.80;96.10;;;;;;5035307;28;19924;-70
2023/08/26 00:18:40;;;;;;;;;;;20.80;96.20;;;;;;5035142;28;20456;-70
2023/08/26 00:21:06;;;;;;;;;;;20.80;96.20;;;;;;5035217;28;19963;-70
2023/08/26 00:23:32;;;;;;;;;;;20.80;96.30;;;;;;5035316;28;20285;-70
2023/08/26 00:25:57;;;;;;;;;;;20.80;96.20;;;;;;5035047;28;19916;-70
2023/08/26 00:28:23;;;;;;;;;;;20.80;96.20;;;;;;5034981;28;19909;-70
2023/08/26 00:30:59;;;;;;;;;;;20.80;96.30;;;;;;5035020;28;19917;-70
2023/08/26 00:33:25;;;;;;;;;;;20.70;96.30;;;;;;5033819;28;19915;-70
2023/08/26 00:35:50;;;;;;;;;;;20.70;96.20;;;;;;5034929;28;19920;-70
2023/08/26 00:38:16;;;;;;;;;;;20.70;96.30;;;;;;5066864;28;19909;-70
2023/08/26 00:40:41;;;;;;;;;;;20.70;96.30;;;;;;5034879;28;19956;-70
2023/08/26 00:43:08;;;;;;;;;;;20.60;96.10;;;;;;5034769;28;19909;-70
2023/08/26 00:45:34;;;;;;;;;;;20.70;96.30;;;;;;5034753;28;19916;-70
2023/08/26 00:48:00;;;;;;;;;;;20.70;96.30;;;;;;5034764;28;19910;-70
2023/08/26 00:50:26;;;;;;;;;;;20.60;96.30;;;;;;5034812;28;20320;-70
2023/08/26 00:52:52;;;;;;;;;;;20.60;96.30;;;;;;5034718;28;19909;-70
2023/08/26 00:55:18;;;;;;;;;;;20.60;96.40;;;;;;5034531;28;20306;-70
2023/08/26 00:57:44;;;;;;;;;;;20.60;96.40;;;;;;5034397;28;20406;-70
2023/08/26 01:00:10;;;;;;;;;;;20.60;96.30;;;;;;5034576;28;19915;-70
2023/08/26 01:02:35;;;;;;;;;;;20.60;96.40;;;;;;5034360;28;20012;-70
2023/08/26 01:05:01;;;;;;;;;;;20.50;96.30;;;;;;5034480;28;19992;-70
2023/08/26 01:07:26;;;;;;;;;;;20.50;96.40;;;;;;5034304;28;19924;-70
2023/08/26 01:09:52;;;;;;;;;;;20.50;96.40;;;;;;5034269;28;19909;-70
2023/08/26 01:12:24;;;;;;;;;;;20.50;96.40;;;;;;5034340;28;19909;-70
2023/08/26 01:15:02;;;;;;;;;;;20.50;96.40;;;;;;5034296;28;19916;-70
2023/08/26 01:17:28;;;;;;;;;;;20.50;96.40;;;;;;5034052;28;20004;-70
2023/08/26 01:19:56;;;;;;;;;;;20.50;96.40;;;;;;5034265;28;20307;-70
2023/08/26 01:22:23;;;;;;;;;;;20.50;96.50;;;;;;5034088;28;20374;-70
2023/08/26 01:24:49;;;;;;;;;;;20.50;96.50;;;;;;5033997;28;20057;-70
2023/08/26 01:27:14;;;;;;;;;;;20.50;96.40;;;;;;5033901;28;20024;-70
2023/08/26 01:29:40;;;;;;;;;;;20.50;96.40;;;;;;5032383;28;19924;-70
2023/08/26 01:32:15;;;;;;;;;;;20.40;96.40;;;;;;5033613;28;19940;-70
2023/08/26 01:34:42;;;;;;;;;;;20.40;96.40;;;;;;5033760;28;19985;-70
2023/08/26 01:37:08;;;;;;;;;;;20.40;96.40;;;;;;5033543;28;19913;-70
2023/08/26 01:39:34;;;;;;;;;;;20.40;96.40;;;;;;5064713;28;19917;-70
2023/08/26 01:42:01;;;;;;;;;;;20.40;96.40;;;;;;5032891;28;19909;-70
2023/08/26 01:44:26;;;;;;;;;;;20.40;96.50;;;;;;5032944;28;19915;-70
2023/08/26 01:46:53;;;;;;;;;;;20.30;96.40;;;;;;5032746;28;19945;-70
2023/08/26 01:49:19;;;;;;;;;;;20.30;96.40;;;;;;5031709;28;19917;-70
2023/08/26 01:51:45;;;;;;;;;;;20.30;96.50;;;;;;5033383;28;20035;-70
2023/08/26 01:54:10;;;;;;;;;;;20.30;96.50;;;;;;5033387;28;20420;-70
2023/08/26 01:56:36;;;;;;;;;;;20.30;96.50;;;;;;5031934;28;20338;-70
2023/08/26 01:59:02;;;;;;;;;;;20.30;96.50;;;;;;5033147;28;19991;-70
2023/08/26 02:01:27;;;;;;;;;;;20.30;96.50;;;;;;5032116;28;20347;-70
2023/08/26 02:03:53;;;;;;;;;;;20.30;96.50;;;;;;5033367;28;20350;-70
2023/08/26 02:06:18;;;;;;;;;;;20.20;96.40;;;;;;5033208;28;19920;-70
2023/08/26 02:08:46;;;;;;;;;;;20.20;96.50;;;;;;5032978;28;19963;-70
2023/08/26 02:11:11;;;;;;;;;;;20.20;96.40;;;;;;5033104;28;19909;-70
2023/08/26 02:13:36;;;;;;;;;;;20.20;96.50;;;;;;5064817;28;19916;-70
2023/08/26 02:16:02;;;;;;;;;;;20.20;96.50;;;;;;5032936;28;20421;-70
2023/08/26 02:18:27;;;;;;;;;;;20.10;96.40;;;;;;5032785;28;19916;-70
2023/08/26 02:20:53;;;;;;;;;;;20.10;96.40;;;;;;5032525;28;19921;-70
2023/08/26 02:23:18;;;;;;;;;;;20.10;96.50;;;;;;5032637;28;19948;-70
2023/08/26 02:25:44;;;;;;;;;;;20.10;96.50;;;;;;5032666;28;19915;-70
2023/08/26 02:28:09;;;;;;;;;;;20.10;96.40;;;;;;5032686;28;20404;-70
2023/08/26 02:30:35;;;;;;;;;;;20.10;96.50;;;;;;5032567;28;19921;-70
2023/08/26 02:33:02;;;;;;;;;;;20.10;96.50;;;;;;5031334;28;19963;-70
2023/08/26 02:35:29;;;;;;;;;;;20.10;96.50;;;;;;5032522;28;20334;-70
2023/08/26 02:37:54;;;;;;;;;;;20.10;96.50;;;;;;5032490;28;19909;-70
2023/08/26 02:40:20;;;;;;;;;;;20.00;96.40;;;;;;5032520;28;19928;-70
2023/08/26 02:42:45;;;;;;;;;;;20.00;96.50;;;;;;5032584;28;20004;-70
2023/08/26 02:45:12;;;;;;;;;;;20.00;96.20;;;;;;5032677;28;20289;-70
2023/08/26 02:47:37;;;;;;;;;;;19.90;96.10;;;;;;5032248;28;19917;-70
2023/08/26 02:50:03;;;;;;;;;;;19.90;96.20;;;;;;5032352;28;19924;-70
2023/08/26 02:52:28;;;;;;;;;;;19.90;96.40;;;;;;5032463;28;19913;-70
2023/08/26 02:54:54;;;;;;;;;;;19.90;96.50;;;;;;5032244;28;20392;-70
2023/08/26 02:57:21;;;;;;;;;;;19.90;96.30;;;;;;5032164;28;19963;-70
2023/08/26 02:59:46;;;;;;;;;;;19.80;96.40;;;;;;5031951;28;19997;-70
2023/08/26 03:02:12;;;;;;;;;;;19.80;96.20;;;;;;5031934;28;19952;-70
2023/08/26 03:04:37;;;;;;;;;;;19.70;95.80;;;;;;5032258;28;19909;-70
2023/08/26 03:07:03;;;;;;;;;;;19.60;96.40;;;;;;5031890;28;19909;-70
2023/08/26 03:09:29;;;;;;;;;;;19.60;96.20;;;;;;5031293;28;19909;-70
2023/08/26 03:11:55;;;;;;;;;;;19.60;96.10;;;;;;5031787;28;20258;-70
2023/08/26 03:14:20;;;;;;;;;;;19.60;96.30;;;;;;5032071;28;19909;-70
2023/08/26 03:16:46;;;;;;;;;;;19.60;96.10;;;;;;5031939;28;20356;-70
2023/08/26 03:19:11;;;;;;;;;;;19.50;96.20;;;;;;5031839;28;20342;-70
2023/08/26 03:21:37;;;;;;;;;;;19.50;96.30;;;;;;5030672;28;20219;-70
2023/08/26 03:24:02;;;;;;;;;;;19.50;96.30;;;;;;5031818;28;19935;-70
2023/08/26 03:26:28;;;;;;;;;;;19.40;96.20;;;;;;5031681;28;19910;-70
2023/08/26 03:28:53;;;;;;;;;;;19.40;95.80;;;;;;5030574;28;20311;-70
2023/08/26 03:31:19;;;;;;;;;;;19.30;96.00;;;;;;5031009;28;20011;-70
2023/08/26 03:33:44;;;;;;;;;;;19.30;96.10;;;;;;5032025;28;20005;-70
2023/08/26 03:36:10;;;;;;;;;;;19.30;96.00;;;;;;5033106;28;20366;-70
2023/08/26 03:38:35;;;;;;;;;;;19.30;96.10;;;;;;5034380;28;19917;-70
2023/08/26 03:41:02;;;;;;;;;;;19.20;96.00;;;;;;5034419;28;19936;-70
2023/08/26 03:43:27;;;;;;;;;;;19.20;96.20;;;;;;5034501;28;19959;-70
2023/08/26 03:45:53;;;;;;;;;;;19.20;96.10;;;;;;5034485;28;19913;-70
2023/08/26 03:48:18;;;;;;;;;;;19.10;96.10;;;;;;5034231;28;20020;-70
2023/08/26 03:50:53;;;;;;;;;;;19.10;95.50;;;;;;5066410;28;19909;-70
2023/08/26 03:53:19;;;;;;;;;;;19.00;95.80;;;;;;5034356;28;19992;-69
2023/08/26 03:55:47;;;;;;;;;;;19.00;96.10;;;;;;5032804;28;20036;-70
2023/08/26 03:58:13;;;;;;;;;;;19.00;95.70;;;;;;5034083;28;19909;-70
2023/08/26 04:00:39;;;;;;;;;;;19.00;96.30;;;;;;5034116;28;19959;-70
2023/08/26 04:03:05;;;;;;;;;;;19.00;95.70;;;;;;5034203;28;20386;-70
2023/08/26 04:05:31;;;;;;;;;;;18.90;95.80;;;;;;5034016;28;20346;-70
2023/08/26 04:07:57;;;;;;;;;;;18.90;96.20;;;;;;5033989;28;19909;-70
2023/08/26 04:10:22;;;;;;;;;;;18.80;95.90;;;;;;5065944;28;19909;-70
2023/08/26 04:12:48;;;;;;;;;;;18.80;96.10;;;;;;5033929;28;20058;-70
2023/08/26 04:15:14;;;;;;;;;;;18.80;95.80;;;;;;5033951;28;19945;-70
2023/08/26 04:17:40;;;;;;;;;;;18.80;96.00;;;;;;5032320;28;19920;-70
2023/08/26 04:20:06;;;;;;;;;;;18.70;95.90;;;;;;5034052;28;19913;-70
2023/08/26 04:22:31;;;;;;;;;;;18.70;96.10;;;;;;5034787;28;19915;-70
2023/08/26 04:24:57;;;;;;;;;;;18.70;96.10;;;;;;5033720;28;20370;-70
2023/08/26 04:27:22;;;;;;;;;;;18.70;96.20;;;;;;5033618;28;19909;-70
2023/08/26 04:29:48;;;;;;;;;;;18.70;96.00;;;;;;4970949;28;1793128;-70
2023/08/26 04:32:13;;;;;;;;;;;18.60;96.10;;;;;;5034881;28;19917;-70
2023/08/26 04:34:39;;;;;;;;;;;18.60;96.30;;;;;;5066788;28;20342;-70
2023/08/26 04:37:04;;;;;;;;;;;18.50;96.00;;;;;;5066714;28;19920;-70
2023/08/26 04:39:30;;;;;;;;;;;18.60;96.10;;;;;;5066630;28;19963;-70
2023/08/26 04:41:56;;;;;;;;;;;18.50;96.20;;;;;;5034467;28;19917;-70
2023/08/26 04:44:21;;;;;;;;;;;18.50;95.80;;;;;;5034225;28;19916;-70
2023/08/26 04:46:47;;;;;;;;;;;18.50;96.10;;;;;;5034047;28;19909;-69
2023/08/26 04:49:12;;;;;;;;;;;18.50;96.10;;;;;;5065493;28;19959;-70
2023/08/26 04:51:38;;;;;;;;;;;18.50;96.10;;;;;;5033946;28;19909;-70
2023/08/26 04:54:04;;;;;;;;;;;18.50;95.90;;;;;;5033598;28;19909;-70
2023/08/26 04:56:29;;;;;;;;;;;18.50;95.90;;;;;;5033630;28;20350;-70
2023/08/26 04:58:55;;;;;;;;;;;18.40;96.10;;;;;;5034246;28;19913;-70
2023/08/26 05:01:20;;;;;;;;;;;18.40;96.00;;;;;;5066270;28;19909;-70
2023/08/26 05:03:46;;;;;;;;;;;18.40;96.00;;;;;;5034237;28;20268;-70
2023/08/26 05:06:11;;;;;;;;;;;18.40;96.00;;;;;;5034067;28;20047;-70
2023/08/26 05:08:37;;;;;;;;;;;18.30;96.00;;;;;;5033537;28;19931;-70
2023/08/26 05:11:05;;;;;;;;;;;18.40;96.00;;;;;;5032547;28;19909;-70
2023/08/26 05:13:30;;;;;;;;;;;18.30;95.90;;;;;;5033492;28;19916;-70
2023/08/26 05:15:55;;;;;;;;;;;18.30;96.30;;;;;;5033957;28;19913;-70
2023/08/26 05:18:21;;;;;;;;;;;18.30;96.00;;;;;;5033739;28;19909;-70
2023/08/26 05:20:46;;;;;;;;;;;18.30;96.00;;;;;;5065919;28;19909;-69
2023/08/26 05:23:12;;;;;;;;;;;18.30;96.00;;;;;;5033827;28;20277;-70
2023/08/26 05:25:38;;;;;;;;;;;18.30;95.80;;;;;;5033603;28;20361;-69
2023/08/26 05:28:06;;;;;;;;;;;18.30;95.70;;;;;;5033559;28;19955;-70
2023/08/26 05:30:33;;;;;;;;;;;18.20;95.70;;;;;;5033563;28;20007;-69
2023/08/26 05:32:58;;;;;;;;;;;18.20;95.90;;;;;;5032375;28;20339;-70
2023/08/26 05:35:24;;;;;;;;;;;18.20;95.90;;;;;;5033615;28;19937;-70
2023/08/26 05:37:49;;;;;;;;;;;18.20;95.70;;;;;;5033286;28;19936;-70
2023/08/26 05:40:15;;;;;;;;;;;18.20;95.90;;;;;;5065525;28;19913;-70
2023/08/26 05:42:41;;;;;;;;;;;18.20;95.80;;;;;;5033377;28;19916;-70
2023/08/26 05:45:07;;;;;;;;;;;18.20;95.80;;;;;;5033380;28;19909;-69
2023/08/26 05:47:33;;;;;;;;;;;18.10;95.70;;;;;;5031962;28;19909;-69
2023/08/26 05:49:59;;;;;;;;;;;18.10;95.70;;;;;;5033324;28;20369;-69
2023/08/26 05:52:24;;;;;;;;;;;18.10;95.60;;;;;;5033159;28;19959;-70
2023/08/26 05:54:50;;;;;;;;;;;18.10;95.70;;;;;;5033168;28;19959;-70
2023/08/26 05:57:15;;;;;;;;;;;18.10;95.80;;;;;;5032200;28;19917;-70
2023/08/26 05:59:41;;;;;;;;;;;18.10;95.20;;;;;;5033069;28;20346;-69
2023/08/26 06:02:06;;;;;;;;;;;18.10;95.60;;;;;;5033029;28;20342;-69
2023/08/26 06:04:32;;;;;;;;;;;18.10;95.70;;;;;;5032811;28;19909;-69
2023/08/26 06:06:57;;;;;;;;;;;18.10;95.70;;;;;;5032295;28;19916;-69
2023/08/26 06:09:23;;;;;;;;;;;18.10;95.70;;;;;;5032292;28;20377;-69
2023/08/26 06:11:48;;;;;;;;;;;18.10;95.60;;;;;;5033790;28;19992;-70
2023/08/26 06:14:14;;;;;;;;;;;18.00;95.70;;;;;;5032872;28;19984;-69
2023/08/26 06:16:39;;;;;;;;;;;18.00;95.60;;;;;;5033160;28;20480;-74
2023/08/26 06:19:05;;;;;;;;;;;18.00;95.70;;;;;;5064591;28;19919;-74
2023/08/26 06:21:30;;;;;;;;;;;18.00;95.60;;;;;;5064724;28;19916;-74
2023/08/26 06:23:56;;;;;;;;;;;18.10;95.60;;;;;;5032745;28;19916;-74
2023/08/26 06:26:21;;;;;;;;;;;18.10;95.60;;;;;;5032566;28;19916;-74
2023/08/26 06:28:47;;;;;;;;;;;18.10;95.50;;;;;;5032660;28;19955;-73
2023/08/26 06:31:12;;;;;;;;;;;18.10;94.90;;;;;;5032417;28;19917;-74
2023/08/26 06:33:38;;;;;;;;;;;18.10;95.40;;;;;;5032540;28;20222;-74
2023/08/26 06:36:04;;;;;;;;;;;18.10;95.40;;;;;;5032351;28;19913;-73
2023/08/26 06:38:29;;;;;;;;;;;18.10;95.40;;;;;;5032505;28;19909;-74
2023/08/26 06:40:55;;;;;;;;;;;18.20;95.40;;;;;;5031113;28;20413;-74
2023/08/26 06:43:21;;;;;;;;;;;18.20;95.20;;;;;;5031149;28;19913;-74
2023/08/26 06:45:46;;;;;;;;;;;18.20;95.30;;;;;;5032403;28;19984;-74
2023/08/26 06:48:12;;;;;;;;;;;18.20;95.20;;;;;;5032027;28;19909;-74
2023/08/26 06:50:37;;;;;;;;;;;18.20;95.20;;;;;;5032116;28;19909;-74
2023/08/26 06:53:03;;;;;;;;;;;18.20;95.00;;;;;;5030958;28;19955;-74
2023/08/26 06:55:28;;;;;;;;;;;18.10;95.10;;;;;;5031750;28;19959;-74
2023/08/26 06:57:54;;;;;;;;;;;18.10;95.10;;;;;;5031712;28;20050;-74
2023/08/26 07:00:19;;;;;;;;;;;18.20;94.90;;;;;;5031926;28;20357;-74
2023/08/26 07:02:45;;;;;;;;;;;18.20;95.10;;;;;;5063857;28;19913;-74
2023/08/26 07:05:10;;;;;;;;;;;18.10;94.80;;;;;;5031865;28;19988;-74
2023/08/26 07:07:36;;;;;;;;;;;18.10;94.40;;;;;;5063173;28;20414;-74
2023/08/26 07:10:02;;;;;;;;;;;18.10;94.50;;;;;;5031165;28;19909;-74
2023/08/26 07:12:28;;;;;;;;;;;18.10;94.90;;;;;;5031311;28;19917;-74
2023/08/26 07:14:53;;;;;;;;;;;18.10;94.90;;;;;;5031466;28;19917;-74
2023/08/26 07:17:19;;;;;;;;;;;18.10;94.90;;;;;;5031431;28;20377;-74
2023/08/26 07:19:44;;;;;;;;;;;18.10;94.70;;;;;;5032041;28;19916;-74
2023/08/26 07:22:10;;;;;;;;;;;18.10;94.80;;;;;;5031820;28;20344;-74
2023/08/26 07:24:35;;;;;;;;;;;18.10;95.00;;;;;;5031859;28;19913;-74
2023/08/26 07:27:01;;;;;;;;;;;18.10;95.00;;;;;;5031841;28;19917;-74
2023/08/26 07:29:26;;;;;;;;;;;18.10;94.90;;;;;;5063597;28;19920;-73
2023/08/26 07:31:52;;;;;;;;;;;18.10;94.80;;;;;;5031821;28;19933;-74
2023/08/26 07:34:17;;;;;;;;;;;18.10;94.70;;;;;;5031685;28;19952;-74
2023/08/26 07:36:43;;;;;;;;;;;18.10;94.60;;;;;;5031048;28;19913;-74
2023/08/26 07:39:08;;;;;;;;;;;18.10;94.30;;;;;;5031884;28;19917;-74
2023/08/26 07:41:35;;;;;;;;;;;18.10;94.70;;;;;;5031747;28;20000;-74
2023/08/26 07:44:00;;;;;;;;;;;18.10;94.30;;;;;;5031448;28;20019;-74
2023/08/26 07:46:26;;;;;;;;;;;18.10;94.70;;;;;;5031410;28;20453;-74
2023/08/26 07:48:51;;;;;;;;;;;18.20;94.40;;;;;;5030993;28;19955;-74
2023/08/26 07:51:17;;;;;;;;;;;18.20;94.70;;;;;;5031265;28;19925;-74
2023/08/26 07:53:43;;;;;;;;;;;18.20;94.60;;;;;;5031338;28;19916;-74
2023/08/26 07:56:08;;;;;;;;;;;18.20;94.70;;;;;;5030967;28;20490;-74
2023/08/26 07:58:34;;;;;;;;;;;18.20;94.30;;;;;;5031071;28;19916;-74
2023/08/26 08:00:59;;;;;;;;;;;18.30;94.50;;;;;;5031463;28;19909;-74
2023/08/26 08:03:25;;;;;;;;;;;18.30;94.50;;;;;;5031424;28;20358;-74
2023/08/26 08:05:50;;;;;;;;;;;18.30;94.50;;;;;;5031417;28;19971;-74
2023/08/26 08:08:16;;;;;;;;;;;18.40;94.50;;;;;;5031213;28;19909;-73
2023/08/26 08:10:42;;;;;;;;;;;18.40;94.80;;;;;;5031189;28;19909;-74
2023/08/26 08:13:08;;;;;;;;;;;18.40;94.20;;;;;;5031574;28;19909;-74
2023/08/26 08:15:34;;;;;;;;;;;18.40;94.50;;;;;;5031372;28;19909;-74
2023/08/26 08:17:59;;;;;;;;;;;18.40;94.30;;;;;;5031123;28;20419;-73
2023/08/26 08:20:25;;;;;;;;;;;18.40;94.20;;;;;;5065435;28;20293;-74
2023/08/26 08:22:51;;;;;;;;;;;18.40;94.30;;;;;;5034901;28;19999;-74
2023/08/26 08:25:16;;;;;;;;;;;18.50;94.20;;;;;;5035063;28;19915;-73
2023/08/26 08:27:42;;;;;;;;;;;18.50;94.20;;;;;;5034706;28;19996;-74
2023/08/26 08:30:07;;;;;;;;;;;18.60;94.10;;;;;;5034669;28;20437;-73
2023/08/26 08:32:33;;;;;;;;;;;18.70;94.10;;;;;;5034837;28;19909;-74
2023/08/26 08:35:02;;;;;;;;;;;18.70;93.90;;;;;;5034570;28;19949;-73
2023/08/26 08:37:28;;;;;;;;;;;18.70;93.90;;;;;;5034122;28;19913;-75
2023/08/26 08:39:53;;;;;;;;;;;18.80;93.80;;;;;;5034484;28;19999;-74
2023/08/26 08:42:21;;;;;;;;;;;18.80;93.80;;;;;;5034151;28;19909;-75
2023/08/26 08:44:47;;;;;;;;;;;18.80;93.70;;;;;;5034239;28;19909;-75
2023/08/26 08:47:13;;;;;;;;;;;18.80;93.60;;;;;;5034529;28;19964;-74
2023/08/26 08:49:41;;;;;;;;;;;18.80;93.40;;;;;;5034297;28;20305;-75
2023/08/26 08:52:07;;;;;;;;;;;18.80;93.10;;;;;;5033083;28;20405;-75
2023/08/26 08:54:33;;;;;;;;;;;18.80;93.20;;;;;;5034360;28;19916;-75
2023/08/26 08:56:59;;;;;;;;;;;18.80;93.50;;;;;;5034242;28;20287;-74
2023/08/26 08:59:25;;;;;;;;;;;18.80;92.90;;;;;;5034175;28;19920;-75
2023/08/26 09:01:54;;;;;;;;;;;18.80;93.20;;;;;;5034185;28;19909;-75
2023/08/26 09:04:21;;;;;;;;;;;18.70;93.30;;;;;;5034154;28;19916;-75
2023/08/26 09:06:46;;;;;;;;;;;18.80;93.30;;;;;;5034209;28;19909;-74
2023/08/26 09:09:12;;;;;;;;;;;18.90;93.10;;;;;;5033047;28;19979;-75
2023/08/26 09:11:38;;;;;;;;;;;18.90;93.20;;;;;;5034087;28;20265;-74
2023/08/26 09:14:04;;;;;;;;;;;19.00;92.80;;;;;;5034236;28;19916;-75
2023/08/26 09:16:36;;;;;;;;;;;19.00;93.00;;;;;;5034047;28;19913;-74
2023/08/26 09:19:04;;;;;;;;;;;19.00;93.00;;;;;;5033708;28;19909;-73
2023/08/26 09:21:30;;;;;;;;;;;19.00;92.80;;;;;;5033839;28;19909;-74
2023/08/26 09:23:56;;;;;;;;;;;19.10;92.70;;;;;;5033981;28;19985;-74
2023/08/26 09:26:24;;;;;;;;;;;19.10;92.80;;;;;;5033620;28;20384;-74
2023/08/26 09:28:50;;;;;;;;;;;19.10;92.80;;;;;;5033423;28;19944;-74
2023/08/26 09:31:16;;;;;;;;;;;19.10;92.80;;;;;;5032313;28;19917;-75
2023/08/26 09:33:42;;;;;;;;;;;19.20;92.80;;;;;;5033596;28;19909;-74
2023/08/26 09:36:07;;;;;;;;;;;19.20;92.60;;;;;;5033407;28;19914;-74
2023/08/26 09:38:47;;;;;;;;;;;19.20;92.70;;;;;;5033248;28;19917;-75
2023/08/26 09:41:19;;;;;;;;;;;19.30;92.50;;;;;;5065611;28;19916;-75
2023/08/26 09:43:45;;;;;;;;;;;19.30;92.50;;;;;;5033456;28;20377;-74
2023/08/26 09:46:20;;;;;;;;;;;19.30;92.30;;;;;;5033946;28;19970;-74
2023/08/26 09:48:47;;;;;;;;;;;19.30;92.00;;;;;;5033666;28;19932;-75
2023/08/26 09:51:22;;;;;;;;;;;19.30;92.20;;;;;;5033185;28;19909;-74
2023/08/26 09:53:48;;;;;;;;;;;19.40;92.20;;;;;;5033219;28;19909;-74
2023/08/26 09:56:15;;;;;;;;;;;19.40;92.20;;;;;;5032883;28;20425;-75
2023/08/26 09:58:41;;;;;;;;;;;19.40;91.70;;;;;;5033012;28;19945;-73
2023/08/26 10:01:06;;;;;;;;;;;19.50;91.90;;;;;;5065116;28;20032;-74
2023/08/26 10:03:33;;;;;;;;;;;19.50;92.20;;;;;;5033084;28;19929;-73
2023/08/26 10:06:00;;;;;;;;;;;19.60;92.00;;;;;;5033078;28;20331;-73
2023/08/26 10:08:31;;;;;;;;;;;19.70;91.90;;;;;;5032844;28;20386;-73
2023/08/26 10:10:57;;;;;;;;;;;19.60;91.60;;;;;;5033026;28;19909;-74
2023/08/26 10:13:24;;;;;;;;;;;19.70;91.20;;;;;;5032814;28;19910;-72
2023/08/26 10:15:51;;;;;;;;;;;19.70;91.80;;;;;;5064714;28;19909;-74
2023/08/26 10:18:23;;;;;;;;;;;19.80;91.90;;;;;;5032784;28;20012;-73
2023/08/26 10:20:49;;;;;;;;;;;19.80;91.90;;;;;;5032692;28;19974;-73
2023/08/26 10:23:15;;;;;;;;;;;19.80;91.70;;;;;;5032796;28;20090;-73
2023/08/26 10:25:41;;;;;;;;;;;19.90;91.50;;;;;;5032567;28;20337;-74
2023/08/26 10:28:06;;;;;;;;;;;19.80;91.50;;;;;;5032409;28;19915;-73
2023/08/26 10:30:32;;;;;;;;;;;19.90;91.40;;;;;;5032444;28;19924;-73
2023/08/26 10:32:59;;;;;;;;;;;19.90;92.00;;;;;;5032642;28;19916;-73
2023/08/26 10:35:25;;;;;;;;;;;19.90;91.90;;;;;;5032567;28;19960;-74
2023/08/26 10:37:51;;;;;;;;;;;20.00;91.60;;;;;;5032282;28;19960;-73
2023/08/26 10:40:30;;;;;;;;;;;20.10;91.60;;;;;;5064252;28;19928;-74
2023/08/26 10:43:02;;;;;;;;;;;20.10;91.00;;;;;;5064218;28;19982;-74
2023/08/26 10:45:28;;;;;;;;;;;20.20;91.70;;;;;;5031223;28;19909;-73
2023/08/26 10:47:54;;;;;;;;;;;20.30;91.50;;;;;;5032243;28;19917;-74
2023/08/26 10:50:20;;;;;;;;;;;20.40;91.30;;;;;;5032552;28;19916;-73
2023/08/26 10:52:49;;;;;;;;;;;20.40;91.30;;;;;;5064168;28;19913;-74
2023/08/26 10:55:19;;;;;;;;;;;20.40;91.50;;;;;;5032340;28;19916;-73
2023/08/26 10:58:03;;;;;;;;;;;20.40;91.30;;;;;;5032020;28;19917;-73
2023/08/26 11:00:29;;;;;;;;;;;20.50;91.40;;;;;;5032163;28;19917;-73
2023/08/26 11:02:55;;;;;;;;;;;20.60;91.20;;;;;;5030888;28;19915;-73
2023/08/26 11:05:21;;;;;;;;;;;20.70;91.30;;;;;;5032144;28;20273;-73
2023/08/26 11:07:47;;;;;;;;;;;20.80;91.30;;;;;;5031366;28;19910;-73
2023/08/26 11:10:25;;;;;;;;;;;20.90;90.70;;;;;;5030553;28;20431;-73
2023/08/26 11:12:51;;;;;;;;;;;20.90;90.60;;;;;;5063745;28;19909;-73
2023/08/26 11:15:16;;;;;;;;;;;21.00;91.00;;;;;;5031870;28;20250;-73
2023/08/26 11:17:42;;;;;;;;;;;21.00;91.10;;;;;;5031466;28;19940;-73
2023/08/26 11:20:08;;;;;;;;;;;21.10;90.60;;;;;;5031567;28;19909;-73
2023/08/26 11:22:34;;;;;;;;;;;21.10;91.10;;;;;;5032061;28;19909;-73
2023/08/26 11:24:59;;;;;;;;;;;21.20;91.10;;;;;;5031741;28;20493;-73
2023/08/26 11:27:25;;;;;;;;;;;21.20;91.00;;;;;;5031765;28;19924;-73
2023/08/26 11:29:50;;;;;;;;;;;21.30;91.20;;;;;;5031345;28;19917;-73
2023/08/26 11:32:16;;;;;;;;;;;21.40;91.20;;;;;;5031579;28;19909;-73
2023/08/26 11:34:42;;;;;;;;;;;21.50;91.00;;;;;;5031556;28;19909;-73
2023/08/26 11:37:08;;;;;;;;;;;21.60;91.20;;;;;;5031294;28;19913;-73
2023/08/26 11:39:35;;;;;;;;;;;21.70;90.80;;;;;;5031774;28;20000;-73
2023/08/26 11:42:20;;;;;;;;;;;21.70;90.80;;;;;;5031869;28;19910;-73
2023/08/26 11:44:46;;;;;;;;;;;21.80;90.30;;;;;;5031492;28;20015;-73
2023/08/26 11:47:12;;;;;;;;;;;21.90;89.70;;;;;;5031760;28;19949;-73
2023/08/26 11:49:38;;;;;;;;;;;22.00;90.40;;;;;;5031819;28;19910;-73
2023/08/26 11:52:04;;;;;;;;;;;22.00;90.70;;;;;;5031613;28;19992;-73
2023/08/26 11:54:30;;;;;;;;;;;22.10;90.00;;;;;;5032498;28;19944;-73
2023/08/26 11:56:55;;;;;;;;;;;22.20;90.60;;;;;;5035301;28;19917;-73
2023/08/26 11:59:21;;;;;;;;;;;22.10;90.50;;;;;;5067444;28;20020;-73
2023/08/26 12:01:47;;;;;;;;;;;22.30;90.60;;;;;;5035675;28;19916;-73
2023/08/26 12:04:13;;;;;;;;;;;22.30;90.80;;;;;;5035767;28;20307;-73
2023/08/26 12:06:39;;;;;;;;;;;22.40;89.20;;;;;;5035453;28;19920;-73
2023/08/26 12:09:05;;;;;;;;;;;22.40;90.40;;;;;;5035311;28;19945;-73
2023/08/26 12:11:37;;;;;;;;;;;22.50;90.60;;;;;;5035467;28;19963;-73
2023/08/26 12:14:21;;;;;;;;;;;22.50;90.60;;;;;;5035413;28;19956;-73
2023/08/26 12:16:46;;;;;;;;;;;22.60;88.10;;;;;;5034056;28;20413;-73
2023/08/26 12:19:12;;;;;;;;;;;22.70;90.20;;;;;;5035158;28;19920;-73
2023/08/26 12:21:38;;;;;;;;;;;22.70;90.30;;;;;;5033611;28;19944;-73
2023/08/26 12:24:04;;;;;;;;;;;22.70;90.30;;;;;;5034439;28;19948;-73
2023/08/26 12:26:30;;;;;;;;;;;22.70;88.50;;;;;;5035059;28;19909;-73
2023/08/26 12:28:55;;;;;;;;;;;22.70;89.80;;;;;;5066296;28;19913;-73
2023/08/26 12:31:21;;;;;;;;;;;22.70;90.20;;;;;;5034964;28;19968;-73
2023/08/26 12:33:46;;;;;;;;;;;22.70;90.30;;;;;;5034833;28;19909;-73
2023/08/26 12:36:12;;;;;;;;;;;22.80;90.30;;;;;;5066852;28;19913;-73
2023/08/26 12:38:38;;;;;;;;;;;22.80;90.50;;;;;;5034659;28;19909;-73
2023/08/26 12:41:05;;;;;;;;;;;22.90;90.20;;;;;;5034462;28;20357;-73
2023/08/26 12:43:30;;;;;;;;;;;22.90;90.00;;;;;;5034729;28;19917;-73
2023/08/26 12:45:56;;;;;;;;;;;23.00;89.10;;;;;;5034511;28;19996;-73
2023/08/26 12:48:22;;;;;;;;;;;22.90;90.00;;;;;;5034443;28;20357;-74
2023/08/26 12:50:47;;;;;;;;;;;22.90;89.90;;;;;;5033375;28;19948;-73
2023/08/26 12:53:13;;;;;;;;;;;22.90;90.10;;;;;;5034351;28;19959;-73
2023/08/26 12:55:38;;;;;;;;;;;22.90;90.30;;;;;;5034432;28;19909;-73
2023/08/26 12:58:06;;;;;;;;;;;23.00;90.40;;;;;;5033912;28;19917;-73
2023/08/26 13:00:31;;;;;;;;;;;23.10;90.10;;;;;;5034192;28;19915;-73
2023/08/26 13:02:57;;;;;;;;;;;23.00;90.10;;;;;;5034240;28;20352;-73
2023/08/26 13:05:23;;;;;;;;;;;23.10;89.20;;;;;;5033983;28;19989;-73
2023/08/26 13:07:48;;;;;;;;;;;23.10;89.80;;;;;;5034031;28;19956;-73
2023/08/26 13:10:14;;;;;;;;;;;23.20;90.10;;;;;;5034300;28;19909;-73
2023/08/26 13:12:42;;;;;;;;;;;23.20;88.40;;;;;;5066138;28;19963;-73
2023/08/26 13:15:09;;;;;;;;;;;23.20;89.30;;;;;;5034229;28;19916;-73
2023/08/26 13:17:34;;;;;;;;;;;23.20;89.70;;;;;;5033697;28;19928;-73
2023/08/26 13:20:00;;;;;;;;;;;23.20;89.20;;;;;;5066044;28;20341;-74
2023/08/26 13:22:26;;;;;;;;;;;23.20;89.40;;;;;;5034022;28;19936;-73
2023/08/26 13:24:52;;;;;;;;;;;23.20;89.30;;;;;;5032713;28;19909;-74
2023/08/26 13:27:18;;;;;;;;;;;23.20;89.00;;;;;;5033790;28;19915;-73
2023/08/26 13:29:43;;;;;;;;;;;23.30;89.30;;;;;;5033675;28;19917;-73
2023/08/26 13:32:08;;;;;;;;;;;23.30;89.20;;;;;;5065832;28;19909;-73
2023/08/26 13:34:34;;;;;;;;;;;23.40;89.00;;;;;;5033813;28;20347;-73
2023/08/26 13:37:00;;;;;;;;;;;23.50;88.90;;;;;;5033475;28;20433;-74
2023/08/26 13:39:25;;;;;;;;;;;23.50;88.70;;;;;;5033584;28;20255;-74
2023/08/26 13:41:51;;;;;;;;;;;23.40;89.60;;;;;;5033553;28;19909;-74
2023/08/26 13:44:16;;;;;;;;;;;23.40;87.30;;;;;;5033512;28;19909;-73
2023/08/26 13:46:42;;;;;;;;;;;23.50;88.90;;;;;;5033352;28;19936;-73
2023/08/26 13:49:07;;;;;;;;;;;23.60;89.10;;;;;;5033272;28;19992;-73
2023/08/26 13:51:33;;;;;;;;;;;23.60;89.60;;;;;;5033540;28;19909;-73
2023/08/26 13:53:59;;;;;;;;;;;23.60;89.30;;;;;;5033620;28;19913;-73
2023/08/26 13:56:24;;;;;;;;;;;23.70;88.70;;;;;;5033277;28;20103;-73
2023/08/26 13:58:50;;;;;;;;;;;23.80;88.60;;;;;;5033311;28;19909;-73
2023/08/26 14:01:15;;;;;;;;;;;23.80;88.90;;;;;;5033350;28;19919;-73
2023/08/26 14:03:41;;;;;;;;;;;23.80;88.80;;;;;;5033430;28;20361;-73
2023/08/26 14:06:07;;;;;;;;;;;23.90;88.10;;;;;;5065108;28;19909;-73
2023/08/26 14:08:33;;;;;;;;;;;23.90;87.00;;;;;;5033249;28;19918;-73
2023/08/26 14:10:58;;;;;;;;;;;24.00;87.70;;;;;;5033213;28;20334;-73